sensor_id;sensor_type;location;lat;lon;timestamp;P1;durP1;ratioP1;P2;durP2;ratioP2
42726;SDS011;28372;56.832;60.658;2023-04-03T00:01:50;8.93;;;3.50;;
42726;SDS011;28372;56.832;60.658;2023-04-03T00:04:17;7.47;;;3.47;;
42726;SDS011;28372;56.832;60.658;2023-04-03T00:06:45;8.38;;;3.63;;
42726;SDS011;28372;56.832;60.658;2023-04-03T00:09:12;8.35;;;3.97;;
42726;SDS011;28372;56.832;60.658;2023-04-03T00:11:40;8.95;;;3.75;;
42726;SDS011;28372;56.832;60.658;2023-04-03T00:14:07;9.50;;;4.18;;
42726;SDS011;28372;56.832;60.658;2023-04-03T00:16:35;9.68;;;4.53;;
42726;SDS011;28372;56.832;60.658;2023-04-03T00:19:02;10.43;;;4.30;;
42726;SDS011;28372;56.832;60.658;2023-04-03T00:21:30;8.35;;;4.28;;
42726;SDS011;28372;56.832;60.658;2023-04-03T00:23:58;12.75;;;4.97;;
42726;SDS011;28372;56.832;60.658;2023-04-03T00:26:26;11.57;;;4.60;;
42726;SDS011;28372;56.832;60.658;2023-04-03T00:28:53;13.38;;;5.00;;
42726;SDS011;28372;56.832;60.658;2023-04-03T00:31:21;12.65;;;4.95;;
42726;SDS011;28372;56.832;60.658;2023-04-03T00:33:49;11.35;;;4.20;;
42726;SDS011;28372;56.832;60.658;2023-04-03T00:36:16;13.15;;;5.03;;
42726;SDS011;28372;56.832;60.658;2023-04-03T00:38:44;10.25;;;4.10;;
42726;SDS011;28372;56.832;60.658;2023-04-03T00:41:12;7.95;;;3.40;;
42726;SDS011;28372;56.832;60.658;2023-04-03T00:43:39;9.05;;;4.22;;
42726;SDS011;28372;56.832;60.658;2023-04-03T00:46:07;9.68;;;3.35;;
42726;SDS011;28372;56.832;60.658;2023-04-03T00:48:39;10.63;;;3.33;;
42726;SDS011;28372;56.832;60.658;2023-04-03T00:51:11;13.07;;;3.58;;
42726;SDS011;28372;56.832;60.658;2023-04-03T00:53:49;8.52;;;3.55;;
42726;SDS011;28372;56.832;60.658;2023-04-03T00:56:23;11.02;;;3.75;;
42726;SDS011;28372;56.832;60.658;2023-04-03T00:58:54;9.90;;;3.35;;
42726;SDS011;28372;56.832;60.658;2023-04-03T01:01:28;7.85;;;3.08;;
42726;SDS011;28372;56.832;60.658;2023-04-03T01:04:00;7.32;;;2.80;;
42726;SDS011;28372;56.832;60.658;2023-04-03T01:06:32;9.18;;;3.35;;
42726;SDS011;28372;56.832;60.658;2023-04-03T01:09:07;9.13;;;3.30;;
42726;SDS011;28372;56.832;60.658;2023-04-03T01:11:35;8.40;;;3.53;;
42726;SDS011;28372;56.832;60.658;2023-04-03T01:14:03;13.13;;;3.65;;
42726;SDS011;28372;56.832;60.658;2023-04-03T01:16:32;11.32;;;3.58;;
42726;SDS011;28372;56.832;60.658;2023-04-03T01:19:00;7.85;;;3.38;;
42726;SDS011;28372;56.832;60.658;2023-04-03T01:24:31;10.85;;;3.75;;
42726;SDS011;28372;56.832;60.658;2023-04-03T01:27:09;14.27;;;4.00;;
42726;SDS011;28372;56.832;60.658;2023-04-03T01:29:39;10.02;;;3.70;;
42726;SDS011;28372;56.832;60.658;2023-04-03T01:32:08;8.90;;;3.72;;
42726;SDS011;28372;56.832;60.658;2023-04-03T01:34:36;11.35;;;4.10;;
42726;SDS011;28372;56.832;60.658;2023-04-03T01:37:09;14.75;;;4.43;;
42726;SDS011;28372;56.832;60.658;2023-04-03T01:40:18;12.02;;;4.82;;
42726;SDS011;28372;56.832;60.658;2023-04-03T01:42:48;11.10;;;4.50;;
42726;SDS011;28372;56.832;60.658;2023-04-03T01:45:18;8.15;;;3.38;;
42726;SDS011;28372;56.832;60.658;2023-04-03T01:50:57;7.68;;;3.80;;
42726;SDS011;28372;56.832;60.658;2023-04-03T01:53:24;11.93;;;4.00;;
42726;SDS011;28372;56.832;60.658;2023-04-03T01:55:52;12.85;;;3.60;;
42726;SDS011;28372;56.832;60.658;2023-04-03T01:58:20;8.80;;;3.03;;
42726;SDS011;28372;56.832;60.658;2023-04-03T02:00:50;10.45;;;3.20;;
42726;SDS011;28372;56.832;60.658;2023-04-03T02:03:18;10.20;;;3.35;;
42726;SDS011;28372;56.832;60.658;2023-04-03T02:05:47;8.32;;;2.88;;
42726;SDS011;28372;56.832;60.658;2023-04-03T02:08:15;8.02;;;3.75;;
42726;SDS011;28372;56.832;60.658;2023-04-03T02:10:49;7.80;;;3.38;;
42726;SDS011;28372;56.832;60.658;2023-04-03T02:13:17;12.32;;;5.20;;
42726;SDS011;28372;56.832;60.658;2023-04-03T02:15:45;14.82;;;5.65;;
42726;SDS011;28372;56.832;60.658;2023-04-03T02:18:16;13.40;;;6.38;;
42726;SDS011;28372;56.832;60.658;2023-04-03T02:20:44;21.52;;;6.88;;
42726;SDS011;28372;56.832;60.658;2023-04-03T02:23:13;17.98;;;8.15;;
42726;SDS011;28372;56.832;60.658;2023-04-03T02:25:40;20.25;;;8.43;;
42726;SDS011;28372;56.832;60.658;2023-04-03T02:28:08;15.38;;;6.88;;
42726;SDS011;28372;56.832;60.658;2023-04-03T02:30:35;20.02;;;6.70;;
42726;SDS011;28372;56.832;60.658;2023-04-03T02:33:04;20.02;;;7.10;;
42726;SDS011;28372;56.832;60.658;2023-04-03T02:35:31;19.60;;;6.78;;
42726;SDS011;28372;56.832;60.658;2023-04-03T02:37:59;19.27;;;7.53;;
42726;SDS011;28372;56.832;60.658;2023-04-03T02:40:27;25.30;;;7.15;;
42726;SDS011;28372;56.832;60.658;2023-04-03T02:42:54;19.73;;;7.40;;
42726;SDS011;28372;56.832;60.658;2023-04-03T02:45:23;18.92;;;6.97;;
42726;SDS011;28372;56.832;60.658;2023-04-03T02:47:51;21.08;;;7.75;;
42726;SDS011;28372;56.832;60.658;2023-04-03T02:50:19;26.48;;;10.25;;
42726;SDS011;28372;56.832;60.658;2023-04-03T02:52:46;19.55;;;7.82;;
42726;SDS011;28372;56.832;60.658;2023-04-03T02:55:14;19.77;;;7.25;;
42726;SDS011;28372;56.832;60.658;2023-04-03T02:57:45;22.90;;;7.78;;
42726;SDS011;28372;56.832;60.658;2023-04-03T03:00:13;23.48;;;7.30;;
42726;SDS011;28372;56.832;60.658;2023-04-03T03:02:41;27.95;;;8.13;;
42726;SDS011;28372;56.832;60.658;2023-04-03T03:05:08;19.20;;;8.52;;
42726;SDS011;28372;56.832;60.658;2023-04-03T03:07:36;25.42;;;7.80;;
42726;SDS011;28372;56.832;60.658;2023-04-03T03:10:04;22.45;;;8.38;;
42726;SDS011;28372;56.832;60.658;2023-04-03T03:12:32;22.35;;;8.38;;
42726;SDS011;28372;56.832;60.658;2023-04-03T03:14:59;21.83;;;7.90;;
42726;SDS011;28372;56.832;60.658;2023-04-03T03:17:28;15.50;;;6.32;;
42726;SDS011;28372;56.832;60.658;2023-04-03T03:19:56;12.63;;;5.38;;
42726;SDS011;28372;56.832;60.658;2023-04-03T03:22:24;16.67;;;6.47;;
42726;SDS011;28372;56.832;60.658;2023-04-03T03:24:51;11.95;;;5.53;;
42726;SDS011;28372;56.832;60.658;2023-04-03T03:27:19;11.32;;;5.20;;
42726;SDS011;28372;56.832;60.658;2023-04-03T03:29:47;12.15;;;5.63;;
42726;SDS011;28372;56.832;60.658;2023-04-03T03:32:15;19.10;;;5.70;;
42726;SDS011;28372;56.832;60.658;2023-04-03T03:34:42;19.00;;;5.40;;
42726;SDS011;28372;56.832;60.658;2023-04-03T03:37:10;18.55;;;4.90;;
42726;SDS011;28372;56.832;60.658;2023-04-03T03:39:38;11.10;;;4.60;;
42726;SDS011;28372;56.832;60.658;2023-04-03T03:42:05;13.70;;;4.20;;
42726;SDS011;28372;56.832;60.658;2023-04-03T03:44:33;15.80;;;4.90;;
42726;SDS011;28372;56.832;60.658;2023-04-03T03:47:00;10.27;;;3.45;;
42726;SDS011;28372;56.832;60.658;2023-04-03T03:49:28;12.68;;;3.70;;
42726;SDS011;28372;56.832;60.658;2023-04-03T03:51:56;11.45;;;3.35;;
42726;SDS011;28372;56.832;60.658;2023-04-03T03:54:24;10.55;;;3.42;;
42726;SDS011;28372;56.832;60.658;2023-04-03T03:56:51;9.68;;;3.35;;
42726;SDS011;28372;56.832;60.658;2023-04-03T03:59:19;12.82;;;3.60;;
42726;SDS011;28372;56.832;60.658;2023-04-03T04:01:47;11.90;;;3.63;;
42726;SDS011;28372;56.832;60.658;2023-04-03T04:04:15;8.23;;;3.17;;
42726;SDS011;28372;56.832;60.658;2023-04-03T04:06:43;11.95;;;2.90;;
42726;SDS011;28372;56.832;60.658;2023-04-03T04:09:12;15.85;;;3.53;;
42726;SDS011;28372;56.832;60.658;2023-04-03T04:11:39;15.85;;;3.28;;
42726;SDS011;28372;56.832;60.658;2023-04-03T04:14:10;13.27;;;3.65;;
42726;SDS011;28372;56.832;60.658;2023-04-03T04:16:41;11.27;;;3.20;;
42726;SDS011;28372;56.832;60.658;2023-04-03T04:19:14;13.93;;;3.83;;
42726;SDS011;28372;56.832;60.658;2023-04-03T04:21:44;15.93;;;3.17;;
42726;SDS011;28372;56.832;60.658;2023-04-03T04:24:12;13.48;;;3.63;;
42726;SDS011;28372;56.832;60.658;2023-04-03T04:26:40;14.70;;;3.45;;
42726;SDS011;28372;56.832;60.658;2023-04-03T04:29:11;12.38;;;3.88;;
42726;SDS011;28372;56.832;60.658;2023-04-03T04:31:38;23.33;;;4.50;;
42726;SDS011;28372;56.832;60.658;2023-04-03T04:34:06;14.88;;;3.83;;
42726;SDS011;28372;56.832;60.658;2023-04-03T04:36:36;17.13;;;3.55;;
42726;SDS011;28372;56.832;60.658;2023-04-03T04:39:04;27.17;;;4.70;;
42726;SDS011;28372;56.832;60.658;2023-04-03T04:41:32;18.17;;;4.35;;
42726;SDS011;28372;56.832;60.658;2023-04-03T04:44:01;19.15;;;3.65;;
42726;SDS011;28372;56.832;60.658;2023-04-03T04:46:30;15.98;;;3.47;;
42726;SDS011;28372;56.832;60.658;2023-04-03T04:48:59;22.58;;;3.72;;
42726;SDS011;28372;56.832;60.658;2023-04-03T04:51:29;21.98;;;3.83;;
42726;SDS011;28372;56.832;60.658;2023-04-03T04:54:15;24.30;;;4.93;;
42726;SDS011;28372;56.832;60.658;2023-04-03T04:56:45;17.55;;;3.50;;
42726;SDS011;28372;56.832;60.658;2023-04-03T04:59:13;23.92;;;4.28;;
42726;SDS011;28372;56.832;60.658;2023-04-03T05:01:41;16.73;;;3.80;;
42726;SDS011;28372;56.832;60.658;2023-04-03T05:04:14;20.73;;;4.15;;
42726;SDS011;28372;56.832;60.658;2023-04-03T05:06:44;21.88;;;4.10;;
42726;SDS011;28372;56.832;60.658;2023-04-03T05:09:18;25.02;;;3.80;;
42726;SDS011;28372;56.832;60.658;2023-04-03T05:11:48;17.52;;;3.55;;
42726;SDS011;28372;56.832;60.658;2023-04-03T05:14:18;18.52;;;3.25;;
42726;SDS011;28372;56.832;60.658;2023-04-03T05:16:45;13.30;;;3.10;;
42726;SDS011;28372;56.832;60.658;2023-04-03T05:19:15;18.48;;;3.42;;
42726;SDS011;28372;56.832;60.658;2023-04-03T05:21:43;17.13;;;3.28;;
42726;SDS011;28372;56.832;60.658;2023-04-03T05:24:14;18.42;;;3.33;;
42726;SDS011;28372;56.832;60.658;2023-04-03T05:26:43;17.67;;;3.88;;
42726;SDS011;28372;56.832;60.658;2023-04-03T05:29:12;15.55;;;4.20;;
42726;SDS011;28372;56.832;60.658;2023-04-03T05:31:40;15.30;;;3.75;;
42726;SDS011;28372;56.832;60.658;2023-04-03T05:34:10;13.73;;;3.75;;
42726;SDS011;28372;56.832;60.658;2023-04-03T05:36:39;14.77;;;3.58;;
42726;SDS011;28372;56.832;60.658;2023-04-03T05:39:08;12.75;;;4.03;;
42726;SDS011;28372;56.832;60.658;2023-04-03T05:41:38;12.80;;;3.85;;
42726;SDS011;28372;56.832;60.658;2023-04-03T05:44:06;18.42;;;4.20;;
42726;SDS011;28372;56.832;60.658;2023-04-03T05:46:34;23.92;;;4.72;;
42726;SDS011;28372;56.832;60.658;2023-04-03T05:49:05;18.85;;;5.57;;
42726;SDS011;28372;56.832;60.658;2023-04-03T05:51:35;27.20;;;5.50;;
42726;SDS011;28372;56.832;60.658;2023-04-03T05:54:25;27.80;;;5.45;;
42726;SDS011;28372;56.832;60.658;2023-04-03T05:57:02;18.67;;;5.18;;
42726;SDS011;28372;56.832;60.658;2023-04-03T05:59:30;16.63;;;4.93;;
42726;SDS011;28372;56.832;60.658;2023-04-03T06:01:59;21.90;;;5.15;;
42726;SDS011;28372;56.832;60.658;2023-04-03T06:04:28;17.98;;;5.10;;
42726;SDS011;28372;56.832;60.658;2023-04-03T06:06:56;14.88;;;4.60;;
42726;SDS011;28372;56.832;60.658;2023-04-03T06:09:26;17.70;;;5.28;;
42726;SDS011;28372;56.832;60.658;2023-04-03T06:11:59;24.88;;;5.55;;
42726;SDS011;28372;56.832;60.658;2023-04-03T06:14:29;17.13;;;5.03;;
42726;SDS011;28372;56.832;60.658;2023-04-03T06:16:57;19.67;;;4.50;;
42726;SDS011;28372;56.832;60.658;2023-04-03T06:19:26;16.25;;;4.60;;
42726;SDS011;28372;56.832;60.658;2023-04-03T06:21:56;23.25;;;5.15;;
42726;SDS011;28372;56.832;60.658;2023-04-03T06:24:23;17.70;;;4.60;;
42726;SDS011;28372;56.832;60.658;2023-04-03T06:26:52;18.77;;;4.88;;
42726;SDS011;28372;56.832;60.658;2023-04-03T06:29:20;14.13;;;4.60;;
42726;SDS011;28372;56.832;60.658;2023-04-03T06:31:48;16.98;;;4.38;;
42726;SDS011;28372;56.832;60.658;2023-04-03T06:34:17;15.75;;;4.60;;
42726;SDS011;28372;56.832;60.658;2023-04-03T06:36:44;22.75;;;4.47;;
42726;SDS011;28372;56.832;60.658;2023-04-03T06:39:16;15.30;;;3.85;;
42726;SDS011;28372;56.832;60.658;2023-04-03T06:41:47;13.75;;;4.30;;
42726;SDS011;28372;56.832;60.658;2023-04-03T06:44:16;13.30;;;4.20;;
42726;SDS011;28372;56.832;60.658;2023-04-03T06:46:44;13.27;;;3.97;;
42726;SDS011;28372;56.832;60.658;2023-04-03T06:49:13;18.08;;;4.53;;
42726;SDS011;28372;56.832;60.658;2023-04-03T06:51:41;23.58;;;5.35;;
42726;SDS011;28372;56.832;60.658;2023-04-03T06:54:09;14.95;;;3.88;;
42726;SDS011;28372;56.832;60.658;2023-04-03T06:56:37;19.70;;;4.38;;
42726;SDS011;28372;56.832;60.658;2023-04-03T06:59:04;16.42;;;3.97;;
42726;SDS011;28372;56.832;60.658;2023-04-03T07:01:32;12.93;;;4.00;;
42726;SDS011;28372;56.832;60.658;2023-04-03T07:03:59;16.05;;;4.20;;
42726;SDS011;28372;56.832;60.658;2023-04-03T07:06:27;9.55;;;3.38;;
42726;SDS011;28372;56.832;60.658;2023-04-03T07:08:55;13.43;;;3.75;;
42726;SDS011;28372;56.832;60.658;2023-04-03T07:11:23;15.40;;;3.90;;
42726;SDS011;28372;56.832;60.658;2023-04-03T07:13:50;11.85;;;3.58;;
42726;SDS011;28372;56.832;60.658;2023-04-03T07:16:18;16.73;;;3.90;;
42726;SDS011;28372;56.832;60.658;2023-04-03T07:18:47;14.93;;;3.65;;
42726;SDS011;28372;56.832;60.658;2023-04-03T07:21:15;12.32;;;3.72;;
42726;SDS011;28372;56.832;60.658;2023-04-03T07:23:42;10.57;;;3.30;;
42726;SDS011;28372;56.832;60.658;2023-04-03T07:26:10;10.13;;;3.55;;
42726;SDS011;28372;56.832;60.658;2023-04-03T07:28:38;13.15;;;3.40;;
42726;SDS011;28372;56.832;60.658;2023-04-03T07:31:07;11.10;;;3.65;;
42726;SDS011;28372;56.832;60.658;2023-04-03T07:33:40;14.43;;;4.15;;
42726;SDS011;28372;56.832;60.658;2023-04-03T07:36:09;11.52;;;3.63;;
42726;SDS011;28372;56.832;60.658;2023-04-03T07:38:41;11.13;;;3.35;;
42726;SDS011;28372;56.832;60.658;2023-04-03T07:41:16;10.10;;;3.08;;
42726;SDS011;28372;56.832;60.658;2023-04-03T07:43:46;14.80;;;3.45;;
42726;SDS011;28372;56.832;60.658;2023-04-03T07:46:16;9.18;;;3.25;;
42726;SDS011;28372;56.832;60.658;2023-04-03T07:48:44;10.50;;;2.85;;
42726;SDS011;28372;56.832;60.658;2023-04-03T07:51:12;8.10;;;2.60;;
42726;SDS011;28372;56.832;60.658;2023-04-03T07:53:40;16.35;;;3.35;;
42726;SDS011;28372;56.832;60.658;2023-04-03T07:56:08;10.85;;;2.60;;
42726;SDS011;28372;56.832;60.658;2023-04-03T07:58:36;11.75;;;2.63;;
42726;SDS011;28372;56.832;60.658;2023-04-03T08:01:04;8.57;;;2.20;;
42726;SDS011;28372;56.832;60.658;2023-04-03T08:03:31;16.80;;;2.90;;
42726;SDS011;28372;56.832;60.658;2023-04-03T08:06:03;7.50;;;1.90;;
42726;SDS011;28372;56.832;60.658;2023-04-03T08:08:37;9.27;;;2.50;;
42726;SDS011;28372;56.832;60.658;2023-04-03T08:11:05;9.27;;;2.40;;
42726;SDS011;28372;56.832;60.658;2023-04-03T08:13:33;10.57;;;2.28;;
42726;SDS011;28372;56.832;60.658;2023-04-03T08:16:12;9.43;;;1.80;;
42726;SDS011;28372;56.832;60.658;2023-04-03T08:18:44;4.85;;;1.38;;
42726;SDS011;28372;56.832;60.658;2023-04-03T08:21:12;8.95;;;1.88;;
42726;SDS011;28372;56.832;60.658;2023-04-03T08:23:40;7.35;;;1.60;;
42726;SDS011;28372;56.832;60.658;2023-04-03T08:26:09;3.95;;;1.60;;
42726;SDS011;28372;56.832;60.658;2023-04-03T08:28:38;4.68;;;1.45;;
42726;SDS011;28372;56.832;60.658;2023-04-03T08:31:09;5.85;;;1.65;;
42726;SDS011;28372;56.832;60.658;2023-04-03T08:33:39;7.97;;;1.67;;
42726;SDS011;28372;56.832;60.658;2023-04-03T08:36:07;8.45;;;1.70;;
42726;SDS011;28372;56.832;60.658;2023-04-03T08:38:43;5.57;;;1.70;;
42726;SDS011;28372;56.832;60.658;2023-04-03T08:41:15;5.68;;;1.70;;
42726;SDS011;28372;56.832;60.658;2023-04-03T08:49:44;5.35;;;1.95;;
42726;SDS011;28372;56.832;60.658;2023-04-03T08:52:19;7.80;;;1.98;;
42726;SDS011;28372;56.832;60.658;2023-04-03T08:54:57;6.43;;;1.85;;
42726;SDS011;28372;56.832;60.658;2023-04-03T08:57:30;9.23;;;1.90;;
42726;SDS011;28372;56.832;60.658;2023-04-03T09:00:04;9.88;;;2.40;;
42726;SDS011;28372;56.832;60.658;2023-04-03T09:02:54;7.22;;;2.05;;
42726;SDS011;28372;56.832;60.658;2023-04-03T09:05:32;5.72;;;1.95;;
42726;SDS011;28372;56.832;60.658;2023-04-03T09:08:12;4.15;;;1.60;;
42726;SDS011;28372;56.832;60.658;2023-04-03T09:10:58;7.35;;;1.88;;
42726;SDS011;28372;56.832;60.658;2023-04-03T09:18:57;9.95;;;1.85;;
42726;SDS011;28372;56.832;60.658;2023-04-03T09:21:37;7.50;;;2.08;;
42726;SDS011;28372;56.832;60.658;2023-04-03T09:24:10;4.25;;;1.60;;
42726;SDS011;28372;56.832;60.658;2023-04-03T09:26:45;5.05;;;1.83;;
42726;SDS011;28372;56.832;60.658;2023-04-03T09:29:17;4.68;;;1.60;;
42726;SDS011;28372;56.832;60.658;2023-04-03T09:31:48;8.70;;;2.05;;
42726;SDS011;28372;56.832;60.658;2023-04-03T09:34:24;6.63;;;1.73;;
42726;SDS011;28372;56.832;60.658;2023-04-03T09:36:58;5.82;;;1.50;;
42726;SDS011;28372;56.832;60.658;2023-04-03T09:39:47;8.80;;;2.45;;
42726;SDS011;28372;56.832;60.658;2023-04-03T09:42:19;5.05;;;1.70;;
42726;SDS011;28372;56.832;60.658;2023-04-03T09:44:56;5.13;;;1.60;;
42726;SDS011;28372;56.832;60.658;2023-04-03T09:47:27;5.97;;;1.75;;
42726;SDS011;28372;56.832;60.658;2023-04-03T09:52:37;6.20;;;1.60;;
42726;SDS011;28372;56.832;60.658;2023-04-03T09:55:13;4.38;;;1.48;;
42726;SDS011;28372;56.832;60.658;2023-04-03T09:57:41;4.38;;;1.90;;
42726;SDS011;28372;56.832;60.658;2023-04-03T10:02:59;7.18;;;1.80;;
42726;SDS011;28372;56.832;60.658;2023-04-03T10:08:08;6.25;;;1.70;;
42726;SDS011;28372;56.832;60.658;2023-04-03T10:10:36;6.07;;;1.70;;
42726;SDS011;28372;56.832;60.658;2023-04-03T10:13:12;7.07;;;1.60;;
42726;SDS011;28372;56.832;60.658;2023-04-03T10:15:50;4.47;;;1.10;;
42726;SDS011;28372;56.832;60.658;2023-04-03T10:18:34;7.25;;;1.50;;
42726;SDS011;28372;56.832;60.658;2023-04-03T10:21:37;4.13;;;1.30;;
42726;SDS011;28372;56.832;60.658;2023-04-03T10:26:57;8.27;;;1.40;;
42726;SDS011;28372;56.832;60.658;2023-04-03T10:33:34;4.47;;;1.45;;
42726;SDS011;28372;56.832;60.658;2023-04-03T10:46:38;5.22;;;1.30;;
42726;SDS011;28372;56.832;60.658;2023-04-03T10:52:06;5.13;;;1.05;;
42726;SDS011;28372;56.832;60.658;2023-04-03T10:55:14;3.35;;;1.05;;
42726;SDS011;28372;56.832;60.658;2023-04-03T10:57:45;2.67;;;0.70;;
42726;SDS011;28372;56.832;60.658;2023-04-03T11:00:17;2.13;;;0.90;;
42726;SDS011;28372;56.832;60.658;2023-04-03T11:03:03;3.85;;;0.90;;
42726;SDS011;28372;56.832;60.658;2023-04-03T11:05:42;3.05;;;0.73;;
42726;SDS011;28372;56.832;60.658;2023-04-03T11:11:22;2.55;;;0.88;;
42726;SDS011;28372;56.832;60.658;2023-04-03T11:13:57;5.65;;;1.15;;
42726;SDS011;28372;56.832;60.658;2023-04-03T11:16:33;3.05;;;1.10;;
42726;SDS011;28372;56.832;60.658;2023-04-03T11:19:31;2.90;;;1.00;;
42726;SDS011;28372;56.832;60.658;2023-04-03T11:22:07;6.07;;;1.30;;
42726;SDS011;28372;56.832;60.658;2023-04-03T11:24:51;5.40;;;1.20;;
42726;SDS011;28372;56.832;60.658;2023-04-03T11:30:17;7.80;;;1.25;;
42726;SDS011;28372;56.832;60.658;2023-04-03T11:35:47;3.50;;;0.73;;
42726;SDS011;28372;56.832;60.658;2023-04-03T11:38:35;1.95;;;0.80;;
42726;SDS011;28372;56.832;60.658;2023-04-03T11:41:07;3.35;;;1.10;;
42726;SDS011;28372;56.832;60.658;2023-04-03T11:43:41;4.32;;;1.10;;
42726;SDS011;28372;56.832;60.658;2023-04-03T11:46:22;4.70;;;1.00;;
42726;SDS011;28372;56.832;60.658;2023-04-03T12:05:55;5.35;;;1.27;;
42726;SDS011;28372;56.832;60.658;2023-04-03T12:14:01;5.20;;;1.40;;
42726;SDS011;28372;56.832;60.658;2023-04-03T12:16:32;5.00;;;1.33;;
42726;SDS011;28372;56.832;60.658;2023-04-03T12:22:12;3.83;;;1.10;;
42726;SDS011;28372;56.832;60.658;2023-04-03T12:24:43;6.63;;;1.67;;
42726;SDS011;28372;56.832;60.658;2023-04-03T12:27:23;4.93;;;1.60;;
42726;SDS011;28372;56.832;60.658;2023-04-03T12:32:43;6.88;;;1.52;;
42726;SDS011;28372;56.832;60.658;2023-04-03T12:44:17;5.20;;;1.23;;
42726;SDS011;28372;56.832;60.658;2023-04-03T12:46:51;3.58;;;1.00;;
42726;SDS011;28372;56.832;60.658;2023-04-03T12:49:24;5.20;;;1.40;;
42726;SDS011;28372;56.832;60.658;2023-04-03T12:51:54;5.53;;;1.55;;
42726;SDS011;28372;56.832;60.658;2023-04-03T12:54:40;4.95;;;1.08;;
42726;SDS011;28372;56.832;60.658;2023-04-03T12:57:12;3.88;;;1.10;;
42726;SDS011;28372;56.832;60.658;2023-04-03T12:59:43;6.93;;;1.23;;
42726;SDS011;28372;56.832;60.658;2023-04-03T13:02:21;4.32;;;1.20;;
42726;SDS011;28372;56.832;60.658;2023-04-03T13:04:51;3.53;;;1.20;;
42726;SDS011;28372;56.832;60.658;2023-04-03T13:07:21;3.55;;;1.20;;
42726;SDS011;28372;56.832;60.658;2023-04-03T13:09:58;4.47;;;1.05;;
42726;SDS011;28372;56.832;60.658;2023-04-03T13:12:28;7.25;;;1.20;;
42726;SDS011;28372;56.832;60.658;2023-04-03T13:15:02;6.85;;;1.42;;
42726;SDS011;28372;56.832;60.658;2023-04-03T13:17:42;3.28;;;0.90;;
42726;SDS011;28372;56.832;60.658;2023-04-03T13:20:29;5.13;;;1.50;;
42726;SDS011;28372;56.832;60.658;2023-04-03T13:23:10;4.22;;;1.38;;
42726;SDS011;28372;56.832;60.658;2023-04-03T13:25:44;2.85;;;1.00;;
42726;SDS011;28372;56.832;60.658;2023-04-03T13:28:19;4.75;;;1.38;;
42726;SDS011;28372;56.832;60.658;2023-04-03T13:33:33;4.67;;;1.23;;
42726;SDS011;28372;56.832;60.658;2023-04-03T13:36:10;4.67;;;1.40;;
42726;SDS011;28372;56.832;60.658;2023-04-03T13:41:33;6.57;;;1.63;;
42726;SDS011;28372;56.832;60.658;2023-04-03T13:46:51;6.55;;;1.38;;
42726;SDS011;28372;56.832;60.658;2023-04-03T13:55:01;7.30;;;1.42;;
42726;SDS011;28372;56.832;60.658;2023-04-03T13:58:01;9.25;;;2.00;;
42726;SDS011;28372;56.832;60.658;2023-04-03T14:00:48;8.95;;;1.85;;
42726;SDS011;28372;56.832;60.658;2023-04-03T14:03:26;6.30;;;1.80;;
42726;SDS011;28372;56.832;60.658;2023-04-03T14:06:00;9.15;;;2.10;;
42726;SDS011;28372;56.832;60.658;2023-04-03T14:08:28;6.55;;;1.50;;
42726;SDS011;28372;56.832;60.658;2023-04-03T14:11:10;5.82;;;1.80;;
42726;SDS011;28372;56.832;60.658;2023-04-03T14:13:45;6.75;;;1.83;;
42726;SDS011;28372;56.832;60.658;2023-04-03T14:16:24;6.50;;;1.50;;
42726;SDS011;28372;56.832;60.658;2023-04-03T14:18:54;5.85;;;1.75;;
42726;SDS011;28372;56.832;60.658;2023-04-03T14:21:21;3.90;;;1.50;;
42726;SDS011;28372;56.832;60.658;2023-04-03T14:23:50;10.40;;;2.20;;
42726;SDS011;28372;56.832;60.658;2023-04-03T14:26:19;10.27;;;1.70;;
42726;SDS011;28372;56.832;60.658;2023-04-03T14:28:51;9.20;;;1.83;;
42726;SDS011;28372;56.832;60.658;2023-04-03T14:31:20;6.78;;;1.75;;
42726;SDS011;28372;56.832;60.658;2023-04-03T14:33:49;8.68;;;2.42;;
42726;SDS011;28372;56.832;60.658;2023-04-03T14:36:21;9.98;;;2.33;;
42726;SDS011;28372;56.832;60.658;2023-04-03T14:38:52;8.27;;;2.20;;
42726;SDS011;28372;56.832;60.658;2023-04-03T14:41:22;7.50;;;2.28;;
42726;SDS011;28372;56.832;60.658;2023-04-03T14:43:52;7.70;;;2.13;;
42726;SDS011;28372;56.832;60.658;2023-04-03T14:46:25;8.38;;;1.98;;
42726;SDS011;28372;56.832;60.658;2023-04-03T14:49:21;5.72;;;2.22;;
42726;SDS011;28372;56.832;60.658;2023-04-03T14:51:57;6.43;;;2.10;;
42726;SDS011;28372;56.832;60.658;2023-04-03T14:54:25;8.07;;;2.22;;
42726;SDS011;28372;56.832;60.658;2023-04-03T14:56:55;7.13;;;2.20;;
42726;SDS011;28372;56.832;60.658;2023-04-03T14:59:25;7.20;;;2.20;;
42726;SDS011;28372;56.832;60.658;2023-04-03T15:01:53;7.25;;;2.55;;
42726;SDS011;28372;56.832;60.658;2023-04-03T15:04:21;6.00;;;2.00;;
42726;SDS011;28372;56.832;60.658;2023-04-03T15:06:49;6.32;;;1.95;;
42726;SDS011;28372;56.832;60.658;2023-04-03T15:09:25;5.63;;;2.15;;
42726;SDS011;28372;56.832;60.658;2023-04-03T15:11:54;8.07;;;2.13;;
42726;SDS011;28372;56.832;60.658;2023-04-03T15:14:22;7.13;;;2.30;;
42726;SDS011;28372;56.832;60.658;2023-04-03T15:17:05;6.85;;;2.00;;
42726;SDS011;28372;56.832;60.658;2023-04-03T15:19:37;7.05;;;2.40;;
42726;SDS011;28372;56.832;60.658;2023-04-03T15:22:05;4.72;;;1.95;;
42726;SDS011;28372;56.832;60.658;2023-04-03T15:24:33;9.52;;;2.17;;
42726;SDS011;28372;56.832;60.658;2023-04-03T15:27:01;4.22;;;1.88;;
42726;SDS011;28372;56.832;60.658;2023-04-03T15:29:29;6.57;;;1.77;;
42726;SDS011;28372;56.832;60.658;2023-04-03T15:31:57;5.18;;;1.95;;
42726;SDS011;28372;56.832;60.658;2023-04-03T15:34:24;8.05;;;2.15;;
42726;SDS011;28372;56.832;60.658;2023-04-03T15:36:52;9.05;;;2.17;;
42726;SDS011;28372;56.832;60.658;2023-04-03T15:39:20;9.68;;;1.98;;
42726;SDS011;28372;56.832;60.658;2023-04-03T15:41:47;7.57;;;1.88;;
42726;SDS011;28372;56.832;60.658;2023-04-03T15:44:15;8.60;;;2.80;;
42726;SDS011;28372;56.832;60.658;2023-04-03T15:46:46;7.85;;;2.22;;
42726;SDS011;28372;56.832;60.658;2023-04-03T15:49:15;9.15;;;2.97;;
42726;SDS011;28372;56.832;60.658;2023-04-03T15:51:43;11.70;;;2.80;;
42726;SDS011;28372;56.832;60.658;2023-04-03T15:54:11;11.52;;;3.80;;
42726;SDS011;28372;56.832;60.658;2023-04-03T15:56:39;16.42;;;8.02;;
42726;SDS011;28372;56.832;60.658;2023-04-03T15:59:06;14.02;;;4.47;;
42726;SDS011;28372;56.832;60.658;2023-04-03T16:01:34;16.90;;;4.82;;
42726;SDS011;28372;56.832;60.658;2023-04-03T16:04:03;13.80;;;4.50;;
42726;SDS011;28372;56.832;60.658;2023-04-03T16:06:31;9.40;;;4.45;;
42726;SDS011;28372;56.832;60.658;2023-04-03T16:09:00;11.95;;;4.50;;
42726;SDS011;28372;56.832;60.658;2023-04-03T16:11:28;13.98;;;4.63;;
42726;SDS011;28372;56.832;60.658;2023-04-03T16:13:55;17.70;;;4.45;;
42726;SDS011;28372;56.832;60.658;2023-04-03T16:16:23;15.27;;;4.50;;
42726;SDS011;28372;56.832;60.658;2023-04-03T16:18:53;15.85;;;4.07;;
42726;SDS011;28372;56.832;60.658;2023-04-03T16:21:22;16.50;;;5.50;;
42726;SDS011;28372;56.832;60.658;2023-04-03T16:23:50;16.77;;;6.43;;
42726;SDS011;28372;56.832;60.658;2023-04-03T16:26:18;18.42;;;6.55;;
42726;SDS011;28372;56.832;60.658;2023-04-03T16:28:46;15.80;;;5.88;;
42726;SDS011;28372;56.832;60.658;2023-04-03T16:31:15;12.88;;;4.57;;
42726;SDS011;28372;56.832;60.658;2023-04-03T16:33:42;13.95;;;4.15;;
42726;SDS011;28372;56.832;60.658;2023-04-03T16:36:10;9.25;;;3.38;;
42726;SDS011;28372;56.832;60.658;2023-04-03T16:38:38;11.00;;;3.33;;